sim
Sign-in with your pilot id or email,
or register
Callsign
Passwort

Schedule Details

Flight Number: EWG5900
Departure: Vienna International Airport (LOWW) at 06:00
Arrival: Fuerteventura Airport (GCFV) at 11:00
Route: Eurowings Passenger Schedule. Enter filed route here before submitting Pirep.

Weather Information
Getting current METAR information for LOWW 212150Z 17003KT 140V210 CAVOK 09/02 Q1018 NOSIG
Getting current METAR information for GCFV 212200Z AUTO 34012KT 9999 BKN026 19/14 Q1015

Schedule Frequency

Route Map